Bell Fountain, Alabama
Current Conditions -  °F | °C
As of 1:15 PM on Friday 21 Nov 2014 (Local Time) from KCQF Reporting Station
Clear Clear  
Wind Chill: 68°   Ceiling: Unl
Heat Index: 68°   Visibility: 10mi
Dew Point: 43°   Wind: 12mph
Humidity: 40%   Direction: 110°ESE
Pressure: 30.27"   Gusts: 18mph
Location:  30.6097°N, 87.6111°W
Report Text: KCQF 211915Z AUTO 11010G16KT 10SM CLR 20/06 A3027 RMK AO2
Loading
Personal Weather Stations






























Interactive Weather Map New forecast layout! Learn more

10-Day Weather Forecast

Advertisements
Track Severe Weather on mobile